Route Details

Aircraft Information
Group: Hub to Hub
Types: B744, MD11, B763, B762, B752, B738
Route Data
Distance: 1946nm
Duration: 5h 34m
Origin METAR: KIAD 152352Z 31005KT 10SM BKN080 BKN120 BKN160 19/16 A2997 RMK AO2 SLP147 T01940161 10217 20194 58000
Dest. METAR: KONT 152353Z 25011G18KT 10SM FEW120 FEW180 36/13 A2978 RMK AO2 SLP062 CB DSNT E AND SE T03560133 10367 20311 56016
Freight Data
(for Aug 16, 2022)
Load Factor:
55%
Manifested Cargo: 79,064lbs
Financial History
Total Freight: 37,492lbs
Average Load: 0lbs/flt
Fuel Used: 48,860lbs
Avg. Fuel Used: 0lbs/flt
Fuel Expense: $31,270
Avg. Fuel Expense: $0
Avg. Fuel Cost: $0/lbs
Total Gross Income: $101,603
Pilot Pay: $169
Total Expenses: $21,069
Total Revenue: $47,408
Average Revenue: $0

Capitol Logistics 419




KIAD
Washington Dulles International Airport
Dulles, Virginia
KONT
Ontario International Airport
Ontario, California

Activity Log

Date Flight Route Aircraft Duration
07/14/2022 CPX419 BUNZZ3 RAMAY Q72 HACKS MXQ SHB GORDO J80 SPI KD54A/N0456F400 DUUZE KD45S TOADD Q78 MARUE JCKIE2 B763 5h 49m